Time;durP1;ratioP1;P1;durP2;ratioP2;P2;SDS_P1;SDS_P2;PMS_P1;PMS_P2;Temp;Humidity;BMP_temperature;BMP_pressure;BME280_temperature;BME280_humidity;BME280_pressure;Samples;Min_cycle;Max_cycle;Signal;HPM_P1;HPM_P2
2023/03/10 00:02:33;;;;;;;61.50;40.00;;;;;;;5.20;100.00;98338.86;180037;1267;54291;-85
2023/03/10 00:06:37;;;;;;;58.00;37.40;;;;;;;5.08;100.00;98333.21;180176;1267;44112;-84
2023/03/10 00:10:40;;;;;;;51.50;37.20;;;;;;;5.02;100.00;98330.58;180377;1267;44130;-85
2023/03/10 00:14:44;;;;;;;64.00;39.80;;;;;;;4.99;100.00;98325.36;180104;1267;43737;-84
2023/03/10 00:18:47;;;;;;;56.20;35.90;;;;;;;4.94;100.00;98323.55;180071;1267;57319;-85
2023/03/10 00:22:51;;;;;;;80.20;42.60;;;;;;;4.92;100.00;98322.67;180281;1267;43781;-85
2023/03/10 00:26:54;;;;;;;57.20;36.40;;;;;;;4.84;100.00;98322.69;180222;1267;43799;-85
2023/03/10 00:31:01;;;;;;;72.50;49.90;;;;;;;4.85;100.00;98319.61;180149;1268;44192;-84
2023/03/10 00:35:05;;;;;;;69.10;51.00;;;;;;;4.93;100.00;98316.46;180224;1267;44312;-85
2023/03/10 00:39:09;;;;;;;78.20;49.70;;;;;;;4.92;100.00;98305.65;179976;1269;57895;-85
2023/03/10 00:43:14;;;;;;;66.90;47.60;;;;;;;4.88;100.00;98293.91;179960;1268;44024;-84
2023/03/10 00:47:17;;;;;;;83.00;49.60;;;;;;;4.84;100.00;98280.38;179988;1269;44311;-84
2023/03/10 00:51:21;;;;;;;79.20;48.00;;;;;;;4.77;100.00;98272.25;179887;1267;44125;-84
2023/03/10 00:55:24;;;;;;;74.10;49.90;;;;;;;4.80;100.00;98267.03;179797;1267;43811;-84
2023/03/10 00:59:27;;;;;;;85.90;53.70;;;;;;;4.81;100.00;98257.47;180149;1267;60392;-84
2023/03/10 01:03:43;;;;;;;74.20;46.20;;;;;;;4.70;100.00;98247.57;179814;1268;43828;-84
2023/03/10 01:07:46;;;;;;;72.00;49.60;;;;;;;4.67;100.00;98236.55;180192;1267;44120;-85
2023/03/10 01:11:49;;;;;;;65.50;44.30;;;;;;;4.66;100.00;98232.23;180314;1267;44127;-85
2023/03/10 01:15:52;;;;;;;67.00;44.80;;;;;;;4.64;100.00;98226.67;180263;1268;44042;-84
2023/03/10 01:19:56;;;;;;;69.80;47.40;;;;;;;4.66;100.00;98219.83;180085;1267;58318;-84
2023/03/10 01:24:00;;;;;;;83.30;53.90;;;;;;;4.71;100.00;98210.57;179928;1269;43820;-85
2023/03/10 01:28:03;;;;;;;83.70;53.40;;;;;;;4.77;100.00;98204.10;180184;1268;44257;-86
2023/03/10 01:32:06;;;;;;;57.30;41.10;;;;;;;4.81;100.00;98194.95;180077;1267;43847;-86
2023/03/10 01:36:12;;;;;;;64.10;42.80;;;;;;;4.85;100.00;98188.36;180434;1267;44006;-86
2023/03/10 01:40:17;;;;;;;53.60;39.90;;;;;;;4.92;100.00;98187.96;180010;1267;60136;-86
2023/03/10 01:44:21;;;;;;;51.40;36.70;;;;;;;4.99;100.00;98186.80;180169;1267;44070;-86
2023/03/10 01:48:24;;;;;;;65.40;41.00;;;;;;;5.06;100.00;98174.63;180189;1267;44431;-86
2023/03/10 01:52:31;;;;;;;65.30;44.50;;;;;;;5.14;100.00;98158.91;180186;1267;44225;-84
2023/03/10 01:56:36;;;;;;;60.70;41.90;;;;;;;5.29;100.00;98149.64;179923;1268;44065;-85
2023/03/10 02:00:40;;;;;;;39.10;24.00;;;;;;;5.40;100.00;98148.90;179938;1267;58270;-85
2023/03/10 02:04:49;;;;;;;35.40;23.00;;;;;;;5.63;100.00;98140.75;180156;1267;44362;-85
2023/03/10 02:08:56;;;;;;;31.00;17.90;;;;;;;5.90;100.00;98135.38;180171;1267;44053;-85
2023/03/10 02:12:59;;;;;;;19.60;16.30;;;;;;;6.25;100.00;98129.13;180213;1269;44325;-86
2023/03/10 02:17:06;;;;;;;15.90;12.00;;;;;;;6.61;100.00;98118.66;180191;1267;44079;-85
2023/03/10 02:21:15;;;;;;;21.20;13.50;;;;;;;6.93;100.00;98110.91;180058;1270;59572;-85
2023/03/10 02:25:26;;;;;;;19.80;11.90;;;;;;;7.21;100.00;98102.45;180361;1267;44067;-84
2023/03/10 02:29:39;;;;;;;13.90;8.60;;;;;;;7.44;100.00;98080.34;180230;1267;44033;-84
2023/03/10 02:34:00;;;;;;;22.20;12.20;;;;;;;7.61;100.00;98071.54;180099;1267;43917;-84
2023/03/10 02:38:03;;;;;;;16.40;13.40;;;;;;;7.77;100.00;98067.38;180160;1268;44088;-85
2023/03/10 02:42:08;;;;;;;23.70;12.70;;;;;;;7.83;100.00;98066.58;180378;1267;59768;-85
2023/03/10 02:46:12;;;;;;;16.10;13.00;;;;;;;7.92;100.00;98062.97;180100;1267;43820;-85
2023/03/10 02:50:17;;;;;;;12.80;9.60;;;;;;;8.01;100.00;98066.98;180228;1267;44163;-85
2023/03/10 02:54:20;;;;;;;15.20;7.70;;;;;;;8.12;100.00;98067.20;180123;1267;44055;-85
2023/03/10 02:58:32;;;;;;;12.70;9.90;;;;;;;8.17;100.00;98062.14;180068;1267;43903;-86
2023/03/10 03:02:46;;;;;;;12.50;9.00;;;;;;;8.21;100.00;98053.05;180056;1267;61552;-85
2023/03/10 03:06:53;;;;;;;15.10;8.20;;;;;;;8.25;100.00;98037.61;180057;1270;43997;-85
2023/03/10 03:10:57;;;;;;;8.90;7.20;;;;;;;8.32;100.00;98031.08;180238;1269;43864;-85
2023/03/10 03:15:00;;;;;;;9.40;7.50;;;;;;;8.35;100.00;98019.98;180121;1267;44083;-85
2023/03/10 03:19:03;;;;;;;16.20;5.10;;;;;;;8.44;100.00;98011.52;180099;1268;44114;-85
2023/03/10 03:23:07;;;;;;;9.50;7.50;;;;;;;8.52;100.00;98008.55;180047;1267;59651;-85
2023/03/10 03:27:11;;;;;;;13.30;6.70;;;;;;;8.62;100.00;98000.05;180041;1270;44112;-85
2023/03/10 03:31:20;;;;;;;9.60;6.30;;;;;;;8.72;100.00;97997.55;179989;1268;44665;-85
2023/03/10 03:35:29;;;;;;;7.10;5.10;;;;;;;8.81;100.00;97995.38;180029;1268;47735;-85
2023/03/10 03:39:32;;;;;;;4.80;4.30;;;;;;;8.84;100.00;97993.44;180027;1267;44076;-85
2023/03/10 03:43:35;;;;;;;6.40;4.70;;;;;;;8.88;100.00;97988.71;180206;1267;59580;-86
2023/03/10 03:47:39;;;;;;;7.60;5.60;;;;;;;9.00;100.00;97981.41;179883;1268;43845;-85
2023/03/10 03:51:42;;;;;;;6.60;4.40;;;;;;;9.10;100.00;97970.45;179883;1267;44050;-85
2023/03/10 03:55:46;;;;;;;12.90;5.50;;;;;;;9.15;100.00;97973.75;180011;1267;43841;-85
2023/03/10 03:59:50;;;;;;;5.20;4.50;;;;;;;9.20;100.00;97967.91;180007;1267;44004;-87
2023/03/10 04:03:53;;;;;;;9.10;5.70;;;;;;;9.25;100.00;97962.01;179988;1268;58396;-86
2023/03/10 04:07:58;;;;;;;9.80;6.50;;;;;;;9.25;100.00;97953.50;179891;1268;44533;-86
2023/03/10 04:12:02;;;;;;;6.60;4.70;;;;;;;9.36;100.00;97944.23;179926;1267;44091;-87
2023/03/10 04:16:06;;;;;;;7.30;5.30;;;;;;;9.37;100.00;97934.52;180161;1267;43941;-87
2023/03/10 04:20:13;;;;;;;9.50;6.10;;;;;;;9.39;100.00;97937.44;180191;1267;43919;-87
2023/03/10 04:24:16;;;;;;;12.10;7.00;;;;;;;9.45;100.00;97933.08;179979;1267;59717;-87
2023/03/10 04:28:20;;;;;;;6.20;4.30;;;;;;;9.46;99.78;97932.41;180064;1268;44131;-87
2023/03/10 04:32:23;;;;;;;14.30;7.30;;;;;;;9.48;99.25;97938.41;179778;1268;44307;-87
2023/03/10 04:36:27;;;;;;;9.70;6.50;;;;;;;9.52;98.74;97935.42;180189;1267;43935;-87
2023/03/10 04:40:30;;;;;;;7.60;5.60;;;;;;;9.58;98.07;97939.69;180179;1267;43888;-88
2023/03/10 04:44:34;;;;;;;7.40;5.90;;;;;;;9.63;97.98;97943.43;179758;1269;59702;-87
2023/03/10 04:48:39;;;;;;;10.40;5.80;;;;;;;9.61;97.71;97940.42;179984;1268;44054;-87
2023/03/10 04:52:45;;;;;;;6.50;5.40;;;;;;;9.54;97.77;97934.70;179917;1268;44618;-87
2023/03/10 04:56:48;;;;;;;6.00;4.90;;;;;;;9.49;97.57;97932.95;180019;1268;44019;-87
2023/03/10 05:00:52;;;;;;;7.00;5.00;;;;;;;9.52;97.20;97928.19;179940;1270;269052;-86
2023/03/10 05:05:06;;;;;;;6.90;5.00;;;;;;;9.50;96.44;97928.06;180075;1268;59655;-85
2023/03/10 05:09:09;;;;;;;6.80;5.50;;;;;;;9.55;96.54;97925.67;179987;1267;44152;-86
2023/03/10 05:13:13;;;;;;;8.00;5.80;;;;;;;9.54;97.19;97909.86;180136;1267;43773;-85
2023/03/10 05:17:16;;;;;;;7.60;5.50;;;;;;;9.48;98.10;97899.40;179707;1268;44071;-86
2023/03/10 05:21:21;;;;;;;9.50;5.70;;;;;;;9.47;98.64;97896.58;180070;1267;43783;-85
2023/03/10 05:25:24;;;;;;;7.80;5.50;;;;;;;9.49;99.15;97893.88;179929;1267;59726;-85
2023/03/10 05:29:27;;;;;;;10.70;5.60;;;;;;;9.48;99.72;97889.35;180081;1268;43868;-85
2023/03/10 05:33:31;;;;;;;6.60;5.00;;;;;;;9.48;99.49;97877.70;180213;1267;43845;-85
2023/03/10 05:37:40;;;;;;;8.90;4.80;;;;;;;9.52;98.52;97868.02;180143;1267;44349;-85
2023/03/10 05:41:43;;;;;;;8.60;5.20;;;;;;;9.55;97.96;97861.29;180200;1273;44228;-84
2023/03/10 05:45:54;;;;;;;11.10;8.40;;;;;;;9.65;96.74;97857.44;179946;1267;59620;-84
2023/03/10 05:49:57;;;;;;;8.70;3.90;;;;;;;9.70;95.95;97855.48;180041;1267;44045;-85
2023/03/10 05:54:04;;;;;;;8.00;4.60;;;;;;;9.82;95.07;97852.65;179920;1267;43896;-84
2023/03/10 05:58:08;;;;;;;5.50;3.70;;;;;;;9.91;94.58;97850.94;179951;1267;44022;-84
2023/03/10 06:02:11;;;;;;;8.30;4.20;;;;;;;9.94;94.46;97846.23;179851;1267;43991;-84
2023/03/10 06:06:14;;;;;;;8.20;5.10;;;;;;;9.97;94.05;97842.65;180075;1268;58354;-84
2023/03/10 06:10:18;;;;;;;6.80;3.50;;;;;;;9.98;93.90;97840.54;179866;1267;43782;-85
2023/03/10 06:14:21;;;;;;;11.40;5.30;;;;;;;10.01;93.94;97840.08;179782;1269;44075;-84
2023/03/10 06:18:25;;;;;;;3.90;3.10;;;;;;;10.02;94.10;97837.35;180151;1267;44165;-84
2023/03/10 06:22:28;;;;;;;5.00;3.30;;;;;;;10.03;94.84;97846.00;180163;1267;44123;-85
2023/03/10 06:26:33;;;;;;;4.50;2.90;;;;;;;10.02;95.23;97833.73;180313;1268;60027;-83
2023/03/10 06:30:36;;;;;;;7.30;4.00;;;;;;;10.04;94.82;97829.06;180303;1267;43743;-85
2023/03/10 06:34:39;;;;;;;10.50;5.30;;;;;;;10.08;94.27;97819.95;180289;1267;44062;-85
2023/03/10 06:38:43;;;;;;;7.40;3.00;;;;;;;10.11;94.06;97811.09;179914;1268;43773;-84
2023/03/10 06:42:46;;;;;;;6.70;2.90;;;;;;;10.20;92.81;97806.50;180139;1267;44006;-84
2023/03/10 06:46:50;;;;;;;8.50;5.00;;;;;;;10.30;91.92;97806.23;179831;1270;58803;-84
2023/03/10 06:50:53;;;;;;;5.70;3.90;;;;;;;10.40;91.09;97799.13;180210;1267;43850;-85
2023/03/10 06:54:56;;;;;;;8.70;3.70;;;;;;;10.45;90.05;97790.36;180227;1267;43782;-84
2023/03/10 06:58:59;;;;;;;3.80;2.90;;;;;;;10.53;89.26;97787.55;179957;1269;44050;-84
2023/03/10 07:03:03;;;;;;;6.20;4.60;;;;;;;10.60;89.65;97784.84;180163;1267;44230;-84
2023/03/10 07:07:06;;;;;;;7.20;4.40;;;;;;;10.63;89.22;97792.34;179988;1267;60705;-84
2023/03/10 07:11:09;;;;;;;13.70;5.80;;;;;;;10.67;88.44;97791.65;180129;1267;44403;-85
2023/03/10 07:35:00;;;;;;;6.10;3.50;;;;;;;11.01;86.88;97814.69;180521;1270;79103;-70
2023/03/10 07:39:32;;;;;;;6.20;3.80;;;;;;;11.06;86.93;97812.82;180900;1272;43122;-71
2023/03/10 07:44:01;;;;;;;5.80;3.90;;;;;;;11.12;88.35;97817.92;180862;1269;43671;-70
2023/03/10 07:48:05;;;;;;;4.20;3.30;;;;;;;11.16;89.30;97821.02;180743;1269;43649;-71
2023/03/10 07:52:08;;;;;;;5.90;3.10;;;;;;;11.22;90.78;97815.92;180889;1268;58075;-71
2023/03/10 07:56:12;;;;;;;9.10;3.80;;;;;;;11.30;91.22;97813.55;180785;1270;43642;-71
2023/03/10 08:00:16;;;;;;;6.10;3.10;;;;;;;11.36;90.92;97818.95;180834;1268;43835;-70
2023/03/10 08:04:19;;;;;;;5.50;3.50;;;;;;;11.41;91.18;97819.57;180812;1270;43027;-71
2023/03/10 08:08:23;;;;;;;4.90;3.40;;;;;;;11.37;89.66;97823.77;180880;1268;43771;-70
2023/03/10 08:12:26;;;;;;;5.70;3.10;;;;;;;11.38;89.66;97827.65;180909;1268;59260;-70
2023/03/10 08:16:29;;;;;;;7.10;5.80;;;;;;;11.42;89.64;97823.17;180847;1268;43386;-70
2023/03/10 08:20:34;;;;;;;5.70;2.90;;;;;;;11.45;89.23;97823.77;180937;1268;43743;-71
2023/03/10 08:24:37;;;;;;;6.70;4.30;;;;;;;11.47;89.07;97817.69;180828;1270;43133;-73
2023/03/10 08:28:41;;;;;;;8.20;4.50;;;;;;;11.46;88.29;97815.14;180884;1270;43012;-73
2023/03/10 08:32:44;;;;;;;6.40;3.70;;;;;;;11.44;87.72;97815.05;180823;1271;57912;-73
2023/03/10 08:36:48;;;;;;;9.90;5.00;;;;;;;11.44;87.44;97817.58;180862;1268;43779;-70
2023/03/10 08:41:24;;;;;;;9.40;5.00;;;;;;;11.48;88.04;97817.61;180880;1268;43388;-70
2023/03/10 08:45:27;;;;;;;6.90;4.70;;;;;;;11.51;88.50;97816.34;180844;1269;44162;-71
2023/03/10 08:49:31;;;;;;;4.90;3.60;;;;;;;11.57;89.47;97810.88;180813;1271;43774;-70
2023/03/10 08:53:35;;;;;;;5.30;3.50;;;;;;;11.65;89.32;97804.48;180872;1269;58223;-71
2023/03/10 08:57:38;;;;;;;5.20;3.00;;;;;;;11.76;89.52;97803.15;180848;1270;43730;-71
2023/03/10 09:01:41;;;;;;;8.70;4.00;;;;;;;11.77;89.76;97803.65;180859;1270;43062;-71
2023/03/10 09:05:45;;;;;;;4.10;2.50;;;;;;;11.97;89.60;97805.96;180619;1270;43056;-71
2023/03/10 09:09:48;;;;;;;4.50;2.80;;;;;;;12.15;90.30;97794.48;180757;1270;43724;-70
2023/03/10 09:13:51;;;;;;;7.20;3.30;;;;;;;12.34;88.34;97789.69;180882;1268;57359;-70
2023/03/10 09:17:54;;;;;;;4.50;3.30;;;;;;;12.50;87.60;97794.23;180882;1269;43118;-72
2023/03/10 09:21:58;;;;;;;7.20;3.20;;;;;;;12.65;87.01;97799.64;180853;1269;43652;-75
2023/03/10 09:26:15;;;;;;;4.00;2.90;;;;;;;12.85;85.52;97795.38;180865;1270;43766;-71
2023/03/10 09:30:18;;;;;;;5.70;2.90;;;;;;;13.03;85.41;97796.81;180868;1270;43740;-72
2023/03/10 09:34:22;;;;;;;5.50;3.10;;;;;;;13.21;85.15;97793.76;180837;1270;58311;-70
2023/03/10 09:38:25;;;;;;;5.10;2.30;;;;;;;13.35;83.88;97792.79;180776;1269;43104;-75
2023/03/10 09:42:39;;;;;;;3.30;1.50;;;;;;;13.55;83.23;97793.23;180891;1269;43009;-78
2023/03/10 09:47:03;;;;;;;1.80;0.60;;;;;;;13.59;80.67;97788.58;180842;1270;43416;-71
2023/03/10 09:51:30;;;;;;;1.00;0.50;;;;;;;13.61;79.92;97796.21;180837;1269;43066;-71
2023/03/10 09:55:39;;;;;;;1.70;0.90;;;;;;;13.56;79.26;97785.04;180826;1270;58258;-71
2023/03/10 09:59:52;;;;;;;;;;;;;;;13.73;79.11;97782.23;180786;1270;43819;-72
2023/03/10 10:04:15;;;;;;;0.80;0.50;;;;;;;13.94;79.71;97779.45;180821;1270;42794;-72
2023/03/10 10:13:16;;;;;;;1.60;0.80;;;;;;;13.90;76.85;97782.91;180128;1274;43075;-72
2023/03/10 10:17:56;;;;;;;5.60;0.70;;;;;;;13.93;79.20;97782.89;179863;1277;58062;-72
2023/03/10 10:22:26;;;;;;;0.60;0.60;;;;;;;13.98;78.68;97782.59;180113;1275;43136;-74
2023/03/10 10:26:29;;;;;;;1.50;1.00;;;;;;;14.00;79.14;97786.17;179719;1274;47330;-74
2023/03/10 10:30:40;;;;;;;2.60;1.50;;;;;;;14.07;78.72;97777.97;180145;1275;43553;-72
2023/03/10 10:35:15;;;;;;;0.70;0.70;;;;;;;14.27;78.72;97775.15;179993;1264;43767;-72
2023/03/10 10:53:41;;;;;;;;;;;;;;;14.57;76.09;97768.81;153030;1267;78419;-70
2023/03/10 11:24:51;;;;;;;0.50;0.40;;;;;;;14.18;81.59;97759.89;180905;1269;43052;-73
2023/03/10 11:29:36;;;;;;;0.80;0.40;;;;;;;14.37;80.74;97752.28;180833;1269;58135;-72
2023/03/10 11:34:09;;;;;;;2.40;0.70;;;;;;;14.70;79.22;97737.88;180912;1268;43772;-72
2023/03/10 11:38:17;;;;;;;1.00;0.60;;;;;;;14.87;76.56;97727.62;180897;1268;43078;-71
2023/03/10 11:42:37;;;;;;;1.40;0.80;;;;;;;15.07;77.00;97729.86;180919;1269;43396;-73
2023/03/10 11:47:34;;;;;;;1.20;1.10;;;;;;;15.37;76.56;97726.77;180940;1268;43719;-76
2023/03/10 11:56:50;;;;;;;0.80;0.70;;;;;;;15.94;73.03;97723.30;180178;1273;43792;-74
2023/03/10 12:00:54;;;;;;;2.30;0.50;;;;;;;16.20;73.92;97725.91;180315;1273;43812;-72
2023/03/10 12:05:06;;;;;;;0.70;0.70;;;;;;;16.01;67.65;97706.65;179952;1273;43939;-72
2023/03/10 12:09:45;;;;;;;0.40;0.40;;;;;;;15.80;69.50;97721.00;179938;1273;43757;-72
2023/03/10 12:23:10;;;;;;;;;;;;;;;15.46;72.76;97722.86;174444;1263;77725;-75
2023/03/10 12:27:14;;;;;;;1.60;0.60;;;;;;;15.36;71.52;97730.33;181039;1267;43428;-73
2023/03/10 12:31:56;;;;;;;1.50;0.60;;;;;;;15.31;72.09;97726.63;180784;1267;43042;-76
2023/03/10 12:36:23;;;;;;;2.20;0.80;;;;;;;15.34;72.05;97729.41;181052;1267;57928;-71
2023/03/10 12:40:52;;;;;;;0.40;0.40;;;;;;;15.31;73.16;97727.98;180910;1268;43125;-71
2023/03/10 12:45:23;;;;;;;2.10;1.10;;;;;;;15.27;72.42;97727.98;180913;1268;43164;-73
2023/03/10 12:49:32;;;;;;;1.50;0.80;;;;;;;15.28;73.38;97727.67;181025;1267;43361;-71
2023/03/10 12:54:45;;;;;;;1.80;0.60;;;;;;;15.28;73.77;97725.65;180960;1267;43861;-71
2023/03/10 12:59:09;;;;;;;2.00;0.90;;;;;;;15.36;74.21;97719.04;178445;1282;58330;-72
2023/03/10 13:03:47;;;;;;;1.10;0.60;;;;;;;15.39;73.13;97713.98;178094;1284;43542;-73
2023/03/10 13:08:00;;;;;;;0.50;0.50;;;;;;;15.31;71.66;97712.16;177296;1289;43101;-71
2023/03/10 13:12:07;;;;;;;0.80;0.70;;;;;;;15.24;72.15;97719.46;177435;1289;43221;-71
2023/03/10 13:16:16;;;;;;;1.40;0.90;;;;;;;15.11;71.23;97709.86;177344;1289;43112;-73
2023/03/10 13:20:22;;;;;;;2.50;0.80;;;;;;;15.23;72.24;97700.04;179131;1268;76252;-85
2023/03/10 13:24:32;;;;;;;0.80;0.50;;;;;;;15.60;71.47;97701.12;180190;1267;44045;-85
2023/03/10 13:28:36;;;;;;;1.00;0.60;;;;;;;16.09;72.16;97701.70;180306;1268;43676;-85
2023/03/10 13:32:39;;;;;;;1.90;0.60;;;;;;;16.40;69.65;97697.26;179989;1268;43887;-85
2023/03/10 13:36:43;;;;;;;2.10;1.20;;;;;;;16.32;67.77;97693.71;180164;1267;44085;-85
2023/03/10 13:40:48;;;;;;;1.10;0.50;;;;;;;16.20;67.92;97694.63;179976;1268;58252;-85
2023/03/10 13:44:53;;;;;;;3.00;0.60;;;;;;;16.29;69.36;97690.91;180054;1267;43986;-85
2023/03/10 13:49:05;;;;;;;9.20;1.20;;;;;;;16.55;70.86;97693.20;180027;1268;44223;-86
2023/03/10 13:53:24;;;;;;;1.40;0.70;;;;;;;16.80;69.46;97689.86;180101;1267;44079;-85
2023/03/10 13:57:36;;;;;;;2.00;0.80;;;;;;;16.74;66.72;97689.28;180117;1267;43858;-85
2023/03/10 14:01:45;;;;;;;3.90;0.90;;;;;;;16.65;67.80;97692.88;179942;1267;59731;-85
2023/03/10 14:05:48;;;;;;;0.70;0.70;;;;;;;16.42;68.18;97685.83;179980;1267;43761;-85
2023/03/10 14:10:03;;;;;;;1.30;0.80;;;;;;;16.27;67.46;97684.62;179965;1267;43884;-82
2023/03/10 14:14:09;;;;;;;1.60;1.30;;;;;;;16.42;68.16;97679.14;180209;1267;43756;-82
2023/03/10 14:18:12;;;;;;;1.00;0.70;;;;;;;16.57;67.29;97683.27;180213;1267;44136;-82
2023/03/10 14:22:29;;;;;;;1.40;0.90;;;;;;;16.60;67.70;97676.37;180208;1267;58024;-82
2023/03/10 14:26:32;;;;;;;2.00;1.00;;;;;;;16.38;64.65;97672.27;179928;1267;43940;-82
2023/03/10 14:30:37;;;;;;;2.90;0.70;;;;;;;16.08;65.17;97663.42;180123;1267;43829;-82
2023/03/10 14:34:40;;;;;;;1.80;0.80;;;;;;;15.87;66.59;97663.90;180151;1268;43978;-82
2023/03/10 14:38:44;;;;;;;3.30;1.00;;;;;;;15.69;67.81;97666.73;179972;1267;44143;-82
2023/03/10 14:42:50;;;;;;;2.40;0.90;;;;;;;15.42;67.05;97667.79;180078;1267;57504;-81
2023/03/10 14:46:54;;;;;;;3.00;1.50;;;;;;;15.21;67.94;97660.45;180000;1271;43830;-81
2023/03/10 14:50:58;;;;;;;5.90;2.00;;;;;;;15.01;68.60;97653.95;180174;1271;44202;-82
2023/03/10 14:55:01;;;;;;;2.80;1.40;;;;;;;14.89;69.98;97654.42;179970;1267;43938;-82
2023/03/10 14:59:05;;;;;;;2.40;1.50;;;;;;;14.75;71.28;97650.89;179979;1267;43850;-82
2023/03/10 15:03:10;;;;;;;2.40;1.90;;;;;;;14.72;72.03;97650.62;179972;1267;59497;-82
2023/03/10 15:07:14;;;;;;;2.10;1.30;;;;;;;14.70;70.93;97641.11;180202;1267;44145;-82
2023/03/10 15:11:17;;;;;;;2.00;1.40;;;;;;;14.76;70.80;97635.83;180239;1267;43860;-82
2023/03/10 15:15:41;;;;;;;5.00;1.90;;;;;;;14.75;70.46;97625.89;180212;1267;44177;-85
2023/03/10 15:19:44;;;;;;;4.20;2.60;;;;;;;14.71;71.84;97622.54;179973;1267;44006;-85
2023/03/10 15:23:48;;;;;;;2.30;1.60;;;;;;;14.60;71.89;97620.55;180139;1268;58389;-86
2023/03/10 15:27:52;;;;;;;5.40;1.90;;;;;;;14.51;72.19;97617.00;180221;1270;43799;-86
2023/03/10 15:42:32;;;;;;;9.50;5.60;;;;;;;14.20;75.17;97611.48;180917;1268;43673;-71
2023/03/10 15:47:42;;;;;;;7.80;4.30;;;;;;;14.15;75.39;97604.68;180903;1267;58266;-71
2023/03/10 15:51:45;;;;;;;9.80;6.10;;;;;;;14.18;75.88;97607.55;180937;1267;43717;-72
2023/03/10 15:55:51;;;;;;;17.50;10.00;;;;;;;14.20;76.14;97601.13;180890;1268;43823;-71
2023/03/10 15:59:54;;;;;;;21.50;13.10;;;;;;;14.17;76.70;97601.96;180857;1268;43762;-75
2023/03/10 16:04:00;;;;;;;15.70;9.10;;;;;;;14.18;77.39;97598.63;180874;1268;43130;-77
2023/03/10 16:08:07;;;;;;;8.90;6.80;;;;;;;14.16;77.72;97593.74;180861;1268;57896;-75
2023/03/10 16:12:11;;;;;;;7.50;5.50;;;;;;;14.09;77.53;97594.64;180870;1268;43212;-77
2023/03/10 16:16:39;;;;;;;8.80;4.90;;;;;;;13.98;77.70;97594.12;180831;1268;43640;-80
2023/03/10 16:20:43;;;;;;;10.80;6.30;;;;;;;13.88;78.05;97600.09;180874;1268;43534;-76
2023/03/10 16:24:46;;;;;;;16.00;10.00;;;;;;;13.78;78.60;97592.55;180904;1268;43095;-75
2023/03/10 16:28:51;;;;;;;21.50;12.00;;;;;;;13.69;78.67;97587.80;180919;1268;57942;-77
2023/03/10 16:33:09;;;;;;;12.80;7.50;;;;;;;13.58;78.89;97589.33;180838;1268;43731;-76
2023/03/10 16:37:12;;;;;;;6.00;2.90;;;;;;;13.48;79.00;97588.35;180824;1268;43178;-75
2023/03/10 16:41:16;;;;;;;6.30;4.10;;;;;;;13.42;81.11;97596.48;180784;1267;43741;-74
2023/03/10 16:45:19;;;;;;;4.50;2.50;;;;;;;13.29;82.96;97600.21;180923;1268;43162;-74
2023/03/10 16:49:47;;;;;;;4.30;2.00;;;;;;;13.10;85.76;97604.87;180731;1268;59731;-76
2023/03/10 16:53:52;;;;;;;3.30;2.40;;;;;;;12.91;88.43;97598.10;180891;1267;43370;-74
2023/03/10 16:57:56;;;;;;;5.00;1.90;;;;;;;12.82;89.26;97596.54;180853;1268;43498;-75
2023/03/10 17:01:59;;;;;;;4.70;2.00;;;;;;;12.71;89.81;97596.63;180541;1264;184399;-86
2023/03/10 17:06:03;;;;;;;12.20;4.30;;;;;;;12.62;90.76;97601.06;179938;1267;44072;-86
2023/03/10 17:10:07;;;;;;;8.10;4.40;;;;;;;12.52;91.58;97606.19;179875;1267;57230;-85
2023/03/10 17:14:13;;;;;;;3.60;2.00;;;;;;;12.45;93.01;97599.45;179962;1267;43858;-85
2023/03/10 17:18:18;;;;;;;6.10;3.30;;;;;;;12.38;94.66;97596.58;179870;1269;43786;-86
2023/03/10 17:22:22;;;;;;;3.80;2.60;;;;;;;12.33;94.51;97592.39;179871;1267;43794;-86
2023/03/10 17:26:26;;;;;;;3.50;3.00;;;;;;;12.25;94.73;97588.58;179819;1267;43821;-86
2023/03/10 17:30:29;;;;;;;4.80;3.00;;;;;;;12.16;94.18;97586.34;180018;1267;59299;-86
2023/03/10 17:34:34;;;;;;;25.80;14.80;;;;;;;12.07;94.82;97583.91;179982;1267;44315;-87
2023/03/10 17:38:39;;;;;;;36.40;15.20;;;;;;;11.99;95.25;97578.73;180174;1267;44382;-87
2023/03/10 17:42:44;;;;;;;10.20;4.40;;;;;;;11.86;95.94;97579.56;180003;1267;44286;-86
2023/03/10 17:46:49;;;;;;;8.10;4.00;;;;;;;11.72;97.44;97586.28;179952;1267;43834;-86
2023/03/10 17:50:52;;;;;;;6.80;4.50;;;;;;;11.58;98.51;97591.84;179963;1268;58561;-86
2023/03/10 17:54:56;;;;;;;8.60;5.30;;;;;;;11.46;99.14;97597.56;180239;1267;43937;-86
2023/03/10 17:58:59;;;;;;;9.80;5.50;;;;;;;11.37;99.58;97589.20;179869;1267;44076;-86
2023/03/10 18:03:03;;;;;;;12.70;7.30;;;;;;;11.27;99.80;97590.23;179931;1267;44054;-87
2023/03/10 18:07:06;;;;;;;16.00;8.80;;;;;;;11.22;100.00;97587.13;180007;1267;43858;-86
2023/03/10 18:11:10;;;;;;;16.40;9.20;;;;;;;11.12;100.00;97582.12;180023;1267;59170;-86
2023/03/10 18:15:13;;;;;;;18.70;10.00;;;;;;;11.04;100.00;97580.14;180015;1267;43818;-87
2023/03/10 18:19:19;;;;;;;21.40;11.50;;;;;;;10.94;100.00;97584.88;180118;1267;43862;-87
2023/03/10 18:23:23;;;;;;;22.50;10.50;;;;;;;10.88;99.59;97581.15;179693;1267;43960;-87
2023/03/10 18:27:27;;;;;;;22.00;12.40;;;;;;;10.79;99.47;97585.06;180069;1267;43780;-86
2023/03/10 18:31:33;;;;;;;11.70;5.00;;;;;;;10.73;99.18;97583.18;180057;1267;58657;-86
2023/03/10 18:35:37;;;;;;;7.50;4.60;;;;;;;10.68;96.40;97586.33;180238;1267;43934;-86
2023/03/10 18:39:44;;;;;;;5.70;3.40;;;;;;;10.68;94.65;97586.80;179910;1267;44030;-86
2023/03/10 18:43:47;;;;;;;4.60;3.20;;;;;;;10.60;93.72;97585.93;180207;1267;47446;-86
2023/03/10 18:47:51;;;;;;;4.70;2.40;;;;;;;10.55;92.28;97587.05;179974;1267;44974;-86
2023/03/10 18:51:54;;;;;;;3.80;2.90;;;;;;;10.56;91.03;97583.86;180228;1267;58076;-86
2023/03/10 18:55:58;;;;;;;4.80;1.70;;;;;;;10.59;90.52;97577.52;180160;1267;44157;-86
2023/03/10 19:00:06;;;;;;;5.70;4.80;;;;;;;10.60;90.16;97567.95;180007;1267;44085;-86
2023/03/10 19:04:09;;;;;;;9.70;6.50;;;;;;;10.61;89.25;97564.84;179959;1267;43846;-87
2023/03/10 19:08:13;;;;;;;10.00;5.40;;;;;;;10.64;87.95;97566.02;180066;1270;44338;-87
2023/03/10 19:12:16;;;;;;;8.00;6.20;;;;;;;10.61;87.48;97560.06;179986;1267;59318;-86
2023/03/10 19:16:20;;;;;;;6.80;6.10;;;;;;;10.55;86.89;97551.78;180174;1267;43959;-86
2023/03/10 19:20:24;;;;;;;8.30;5.90;;;;;;;10.50;86.77;97553.63;180039;1267;44141;-87
2023/03/10 19:24:27;;;;;;;7.10;5.10;;;;;;;10.45;86.59;97553.19;179920;1267;43910;-88
2023/03/10 19:28:31;;;;;;;5.90;4.20;;;;;;;10.44;86.54;97550.27;179905;1267;44355;-84
2023/03/10 19:32:34;;;;;;;5.90;3.30;;;;;;;10.43;86.37;97546.48;179974;1267;60754;-85
2023/03/10 19:36:38;;;;;;;3.40;2.60;;;;;;;10.40;86.05;97538.13;179881;1267;44536;-85
2023/03/10 19:40:45;;;;;;;5.30;3.10;;;;;;;10.37;85.87;97531.63;179938;1267;43851;-85
2023/03/10 19:44:48;;;;;;;2.80;1.50;;;;;;;10.32;85.89;97523.77;179851;1267;44324;-85
2023/03/10 19:48:53;;;;;;;3.00;2.20;;;;;;;10.28;85.79;97525.51;180069;1267;43832;-85
2023/03/10 19:52:56;;;;;;;9.70;5.70;;;;;;;10.24;86.12;97522.65;180001;1267;58995;-85
2023/03/10 19:57:00;;;;;;;9.30;6.00;;;;;;;10.15;86.54;97522.70;179996;1267;43855;-85
2023/03/10 20:01:04;;;;;;;7.70;5.30;;;;;;;10.08;87.16;97521.42;180116;1267;43814;-87
2023/03/10 20:05:09;;;;;;;16.50;9.80;;;;;;;10.02;87.52;97525.11;180242;1267;43815;-85
2023/03/10 20:09:13;;;;;;;16.60;12.30;;;;;;;9.95;88.21;97521.87;180047;1267;43841;-85
2023/03/10 20:13:16;;;;;;;17.00;11.70;;;;;;;9.90;89.07;97517.05;179910;1267;57940;-85
2023/03/10 20:17:20;;;;;;;20.60;13.00;;;;;;;9.83;89.85;97520.40;179932;1267;44133;-85
2023/03/10 20:21:24;;;;;;;23.80;15.40;;;;;;;9.78;90.69;97521.66;179892;1267;43879;-85
2023/03/10 20:25:28;;;;;;;8.00;6.60;;;;;;;9.74;90.77;97525.70;180087;1267;43956;-84
2023/03/10 20:29:33;;;;;;;7.30;5.40;;;;;;;9.82;90.54;97526.08;179905;1267;43984;-85
2023/03/10 20:33:36;;;;;;;10.20;8.60;;;;;;;9.87;90.16;97520.08;180317;1267;59604;-86
2023/03/10 20:37:40;;;;;;;11.90;9.10;;;;;;;9.89;89.60;97517.92;179969;1267;44062;-86